createdAt,value
2017-11-30T00:01:09.996Z,1.80
2017-11-30T00:06:51.361Z,1.70
2017-11-30T00:12:19.506Z,1.70
2017-11-30T00:17:47.657Z,1.70
2017-11-30T00:23:18.835Z,1.60
2017-11-30T00:28:47.025Z,1.60
2017-11-30T00:34:16.111Z,1.40
2017-11-30T00:39:45.005Z,1.30
2017-11-30T00:45:17.375Z,1.10
2017-11-30T00:50:45.490Z,0.90
2017-11-30T00:56:14.393Z,0.80
2017-11-30T01:02:03.356Z,0.70
2017-11-30T01:07:31.515Z,0.60
2017-11-30T01:13:03.439Z,0.60
2017-11-30T01:18:31.590Z,0.50
2017-11-30T01:24:00.513Z,0.40
2017-11-30T01:29:29.421Z,0.30
2017-11-30T01:34:57.812Z,0.30
2017-11-30T01:40:28.251Z,0.30
2017-11-30T01:45:56.400Z,0.20
2017-11-30T01:51:25.125Z,0.30
2017-11-30T01:56:53.283Z,0.30
2017-11-30T02:02:21.421Z,0.30
2017-11-30T02:07:49.579Z,0.30
2017-11-30T02:13:17.712Z,0.40
2017-11-30T02:19:02.537Z,0.40
2017-11-30T02:24:30.676Z,0.40
2017-11-30T02:30:11.100Z,0.40
2017-11-30T02:35:39.475Z,0.40
2017-11-30T02:41:07.609Z,0.40
2017-11-30T02:46:35.748Z,0.30
2017-11-30T02:52:03.886Z,0.30
2017-11-30T02:57:32.040Z,0.30
2017-11-30T03:03:01.015Z,0.30
2017-11-30T03:08:29.935Z,0.30
2017-11-30T03:13:58.102Z,0.30
2017-11-30T03:19:26.250Z,0.30
2017-11-30T03:24:55.426Z,0.30
2017-11-30T03:30:23.587Z,0.30
2017-11-30T03:35:51.757Z,0.30
2017-11-30T03:41:19.896Z,0.30
2017-11-30T03:46:48.054Z,0.30
2017-11-30T03:52:16.201Z,0.30
2017-11-30T03:57:44.354Z,0.30
2017-11-30T04:03:12.494Z,0.30
2017-11-30T04:08:42.588Z,0.20
2017-11-30T04:14:11.495Z,0.20
2017-11-30T04:19:39.644Z,0.20
2017-11-30T04:25:28.185Z,0.30
2017-11-30T04:30:56.337Z,0.20
2017-11-30T04:36:24.723Z,0.20
2017-11-30T04:41:52.883Z,0.20
2017-11-30T04:47:21.026Z,0.10
2017-11-30T04:52:49.947Z,0.00
2017-11-30T04:58:18.100Z,0.00
2017-11-30T05:03:47.019Z,-0.10
2017-11-30T05:09:15.922Z,-0.10
2017-11-30T05:14:44.072Z,-0.10
2017-11-30T05:20:13.245Z,-0.20
2017-11-30T05:25:44.970Z,-0.20
2017-11-30T05:31:13.122Z,-0.20
2017-11-30T05:36:43.232Z,-0.20
2017-11-30T05:42:13.094Z,-0.30
2017-11-30T05:47:48.466Z,-0.30
2017-11-30T05:53:16.641Z,-0.30
2017-11-30T05:58:45.750Z,-0.40
2017-11-30T06:04:14.671Z,-0.40
2017-11-30T06:09:42.825Z,-0.40
2017-11-30T06:15:10.985Z,-0.30
2017-11-30T06:20:39.148Z,-0.30
2017-11-30T06:26:08.070Z,-0.30
2017-11-30T06:31:36.241Z,-0.20
2017-11-30T06:37:04.394Z,-0.20
2017-11-30T06:42:32.552Z,-0.20
2017-11-30T06:48:00.720Z,-0.10
2017-11-30T06:53:28.891Z,-0.10
2017-11-30T06:58:57.805Z,0.00
2017-11-30T07:04:26.736Z,0.00
2017-11-30T07:09:54.908Z,0.00
2017-11-30T07:15:23.099Z,0.00
2017-11-30T07:20:51.254Z,0.00
2017-11-30T07:26:19.412Z,0.00
2017-11-30T07:31:47.591Z,0.00
2017-11-30T07:37:15.739Z,0.00
2017-11-30T07:42:43.881Z,0.00
2017-11-30T07:48:12.017Z,0.00
2017-11-30T07:53:40.948Z,0.00
2017-11-30T07:59:09.865Z,0.10
2017-11-30T08:04:38.002Z,0.10
2017-11-30T08:10:06.211Z,0.20
2017-11-30T08:15:34.389Z,0.20
2017-11-30T08:21:02.528Z,0.30
2017-11-30T08:26:30.677Z,0.40
2017-11-30T08:31:58.825Z,0.50
2017-11-30T08:37:26.999Z,0.50
2017-11-30T08:42:55.152Z,0.60
2017-11-30T08:48:23.300Z,0.70
2017-11-30T08:53:51.435Z,0.70
2017-11-30T08:59:19.571Z,0.70
2017-11-30T09:04:47.726Z,0.80
2017-11-30T09:10:16.666Z,0.80
2017-11-30T09:15:44.807Z,0.80
2017-11-30T09:21:12.975Z,0.80
2017-11-30T09:26:41.142Z,0.80
2017-11-30T09:32:09.311Z,0.90
2017-11-30T09:37:37.448Z,0.90
2017-11-30T09:43:05.673Z,1.00
2017-11-30T09:48:34.652Z,1.00
2017-11-30T09:54:06.115Z,1.10
2017-11-30T09:59:37.033Z,1.10
2017-11-30T10:05:05.313Z,1.10
2017-11-30T10:10:34.248Z,1.10
2017-11-30T10:16:03.210Z,1.10
2017-11-30T10:21:31.374Z,1.10
2017-11-30T10:26:59.531Z,1.10
2017-11-30T10:32:28.470Z,1.20
2017-11-30T10:37:57.375Z,1.20
2017-11-30T10:43:26.381Z,1.10
2017-11-30T10:48:55.522Z,1.10
2017-11-30T10:54:24.605Z,1.10
2017-11-30T11:00:05.321Z,1.10
2017-11-30T11:05:34.446Z,1.20
2017-11-30T11:11:02.597Z,1.20
2017-11-30T11:16:30.736Z,1.20
2017-11-30T11:21:59.660Z,1.30
2017-11-30T11:27:27.836Z,1.20
2017-11-30T11:32:56.018Z,1.20
2017-11-30T11:38:25.080Z,1.20
2017-11-30T11:43:53.523Z,1.30
2017-11-30T11:49:21.751Z,1.20
2017-11-30T11:54:49.954Z,1.20
2017-11-30T12:00:18.121Z,1.10
2017-11-30T12:05:46.273Z,1.10
2017-11-30T12:11:14.419Z,1.10
2017-11-30T12:16:42.575Z,1.00
2017-11-30T12:22:10.714Z,0.90
2017-11-30T12:27:38.853Z,0.90
2017-11-30T12:33:06.992Z,0.90
2017-11-30T12:38:35.145Z,1.00
2017-11-30T12:44:03.277Z,0.90
2017-11-30T12:49:33.352Z,0.90
2017-11-30T12:55:02.274Z,0.90
2017-11-30T13:00:30.408Z,0.80
2017-11-30T13:05:58.559Z,0.70
2017-11-30T13:11:26.723Z,0.70
2017-11-30T13:16:54.892Z,0.70
2017-11-30T13:22:25.058Z,0.60
2017-11-30T13:27:53.509Z,0.60
2017-11-30T13:33:21.672Z,0.60
2017-11-30T13:38:49.814Z,0.50
2017-11-30T13:44:18.733Z,0.50
2017-11-30T13:49:46.853Z,0.40
2017-11-30T13:55:14.995Z,0.30
2017-11-30T14:00:43.135Z,0.30
2017-11-30T14:06:11.274Z,0.20
2017-11-30T14:11:39.398Z,0.20
2017-11-30T14:17:07.544Z,0.30
2017-11-30T14:22:35.660Z,0.30
2017-11-30T14:28:03.785Z,0.40
2017-11-30T14:33:31.926Z,0.40
2017-11-30T14:39:01.725Z,0.40
2017-11-30T14:44:32.522Z,0.40
2017-11-30T14:50:00.655Z,0.40
2017-11-30T14:55:28.782Z,0.40
2017-11-30T15:00:56.914Z,0.40
2017-11-30T15:06:25.845Z,0.40
2017-11-30T15:11:53.995Z,0.40
2017-11-30T15:17:22.136Z,0.30
2017-11-30T15:22:52.233Z,0.30
2017-11-30T15:28:20.678Z,0.20
2017-11-30T15:33:49.587Z,0.20
2017-11-30T15:39:26.288Z,0.20
2017-11-30T15:44:55.260Z,0.20
2017-11-30T15:50:23.439Z,0.20
2017-11-30T15:55:51.614Z,0.20
2017-11-30T16:01:20.514Z,0.20
2017-11-30T16:06:48.658Z,0.20
2017-11-30T16:12:16.805Z,0.20
2017-11-30T16:17:51.396Z,0.20
2017-11-30T16:23:19.539Z,0.20
2017-11-30T16:28:47.690Z,0.20
2017-11-30T16:34:15.810Z,0.20
2017-11-30T16:39:44.684Z,0.00
2017-11-30T16:45:14.736Z,-0.10
2017-11-30T16:50:43.634Z,-0.20
2017-11-30T16:56:17.412Z,-0.20
2017-11-30T17:01:45.576Z,-0.30
2017-11-30T17:07:13.744Z,-0.30
2017-11-30T17:12:41.886Z,-0.40
2017-11-30T17:18:10.809Z,-0.50
2017-11-30T17:23:38.960Z,-0.50
2017-11-30T17:29:07.095Z,-0.60
2017-11-30T17:34:35.231Z,-0.60
2017-11-30T17:40:03.380Z,-0.60
2017-11-30T17:45:32.306Z,-0.60
2017-11-30T17:51:00.477Z,-0.70
2017-11-30T17:56:28.641Z,-0.70
2017-11-30T18:01:56.814Z,-0.80
2017-11-30T18:07:24.981Z,-0.80
2017-11-30T18:12:53.137Z,-0.90
2017-11-30T18:18:23.015Z,-0.90
2017-11-30T18:24:12.855Z,-0.90
2017-11-30T18:29:41.002Z,-0.90
2017-11-30T18:35:09.287Z,-1.00
2017-11-30T18:40:37.452Z,-1.00
2017-11-30T18:46:07.657Z,-1.00
2017-11-30T18:51:40.079Z,-1.10
2017-11-30T18:57:11.940Z,-1.10
2017-11-30T19:02:40.089Z,-1.10
2017-11-30T19:08:08.222Z,-1.10
2017-11-30T19:13:41.204Z,-1.20
2017-11-30T19:19:09.355Z,-1.20
2017-11-30T19:24:37.517Z,-1.20
2017-11-30T19:30:05.826Z,-1.20
2017-11-30T19:35:34.738Z,-1.20
2017-11-30T19:41:02.877Z,-1.30
2017-11-30T19:46:33.748Z,-1.30
2017-11-30T19:52:01.916Z,-1.30
2017-11-30T19:57:30.140Z,-1.30
2017-11-30T20:02:58.325Z,-1.30
2017-11-30T20:08:28.223Z,-1.30
2017-11-30T20:13:57.332Z,-1.30
2017-11-30T20:19:27.501Z,-1.30
2017-11-30T20:24:55.707Z,-1.30
2017-11-30T20:30:24.933Z,-1.40
2017-11-30T20:35:53.093Z,-1.40
2017-11-30T20:41:24.452Z,-1.40
2017-11-30T20:46:52.652Z,-1.40
2017-11-30T20:52:20.788Z,-1.40
2017-11-30T20:57:49.885Z,-1.40
2017-11-30T21:03:18.028Z,-1.40
2017-11-30T21:08:47.097Z,-1.40
2017-11-30T21:14:15.255Z,-1.40
2017-11-30T21:19:43.397Z,-1.40
2017-11-30T21:25:11.601Z,-1.40
2017-11-30T21:30:39.744Z,-1.40
2017-11-30T21:36:07.977Z,-1.40
2017-11-30T21:41:36.274Z,-1.40
2017-11-30T21:47:04.484Z,-1.40
2017-11-30T21:52:32.811Z,-1.40
2017-11-30T21:58:01.107Z,-1.40
2017-11-30T22:03:30.011Z,-1.40
2017-11-30T22:08:58.168Z,-1.40
2017-11-30T22:14:27.083Z,-1.40
2017-11-30T22:19:55.235Z,-1.40
2017-11-30T22:25:23.398Z,-1.40
2017-11-30T22:30:59.415Z,-1.40
2017-11-30T22:36:27.579Z,-1.40
2017-11-30T22:41:55.737Z,-1.50
2017-11-30T22:47:25.840Z,-1.50
2017-11-30T22:52:58.004Z,-1.50
2017-11-30T22:58:26.153Z,-1.50
2017-11-30T23:03:54.335Z,-1.40
2017-11-30T23:09:22.532Z,-1.40
2017-11-30T23:14:50.748Z,-1.30
2017-11-30T23:20:19.649Z,-1.20
2017-11-30T23:25:48.678Z,-1.20
2017-11-30T23:31:17.068Z,-1.10
2017-11-30T23:36:45.966Z,-1.00
2017-11-30T23:42:14.135Z,-1.10
2017-11-30T23:47:42.468Z,-1.20
2017-11-30T23:53:10.612Z,-1.20
2017-11-30T23:58:44.347Z,-1.30
